MSC Carolina — 3ECV5 — position and weather

sailwx.info

Track history (hours):
 
Tides and Currents Weather Stations Pressure Air Temp Water Temp Dewpoint Dewpoint Depression Visibility Wind Speed Wind Dir Waves Ship Positions

MSC Carolina

Last reported at 2014-Aug-21 05:33 UTC. Time now 2014-Aug-21 06:22 UTC.
Position N 34°39' E 033°01'.

Length 275 m; draft 12.1 m.

Type: Ship (hazmat cat B). MMSI: 371475000.

Date/timePositionNaut miles runAvg speedWind from/ knotsBaromVisibWave heightAir tempDewpointWater temp
2014-Aug-21 05:33N 34°39' E 033°01'0 0.0
2014-Aug-21 04:33N 34°39' E 033°01'2 2.1
2014-Aug-21 03:33N 34°39' E 033°03'3 2.8
2014-Aug-21 02:33N 34°38' E 033°06'9 8.8
2014-Aug-21 01:33N 34°31' E 033°14'0 0.2
2014-Aug-21 00:25N 34°31' E 033°14'0 0.2
2014-Aug-20 23:27N 34°31' E 033°14'0 0.2
2014-Aug-20 22:33N 34°31' E 033°14'0 0.3
2014-Aug-20 21:33N 34°31' E 033°13'0 0.3
2014-Aug-20 20:30N 34°31' E 033°13'0 0.3
2014-Aug-20 19:33N 34°30' E 033°13'0 0.3
2014-Aug-20 18:33N 34°30' E 033°13'0 0.2
2014-Aug-20 17:33N 34°30' E 033°12'1 1.4
2014-Aug-20 16:34N 34°30' E 033°11'10 9.9
2014-Aug-20 15:34N 34°25' E 033°01'1110.9
2014-Aug-20 14:33N 34°24' E 032°47'1110.9
2014-Aug-20 13:33N 34°22' E 032°34'  
2014-Aug-17 11:24N 36°27' E 014°52'1012.0
2014-Aug-17 10:34N 36°29' E 014°40'1212.3
2014-Aug-17 09:34N 36°32' E 014°25'1212.1
2014-Aug-17 08:34N 36°35' E 014°11'1212.2
2014-Aug-17 07:34N 36°37' E 013°56'1212.1
2014-Aug-17 06:34N 36°40' E 013°41'1212.1
2014-Aug-17 05:34N 36°43' E 013°26'1312.2
2014-Aug-17 04:27N 36°46' E 013°10'1111.9
2014-Aug-17 03:34N 36°48' E 012°57'1211.8
2014-Aug-17 02:33N 36°51' E 012°43'1211.9
2014-Aug-17 01:34N 36°53' E 012°28'1212.1
2014-Aug-17 00:32N 36°56' E 012°13'2812.1
2014-Aug-16 22:12N 37°07' E 011°40'811.8
2014-Aug-16 21:32N 37°11' E 011°32'1311.8
2014-Aug-16 20:28N 37°18' E 011°19'1211.9
2014-Aug-16 19:25N 37°24' E 011°05'1011.8
2014-Aug-16 18:34N 37°29' E 010°54'1212.0
2014-Aug-16 17:33N 37°36' E 010°41'1212.2
2014-Aug-16 16:33N 37°42' E 010°28'1212.3
2014-Aug-16 15:33N 37°47' E 010°14'1211.8
2014-Aug-16 14:34N 37°51' E 010°00'1212.1
2014-Aug-16 13:33N 37°53' E 009°45'1313.4
2014-Aug-16 12:33N 37°55' E 009°28'1313.3
2014-Aug-16 11:34N 37°58' E 009°12'1313.4
2014-Aug-16 10:34N 37°59' E 008°55'1313.4
2014-Aug-16 09:34N 38°01' E 008°38'1413.5
2014-Aug-16 08:33N 38°03' E 008°21'26815.7
2014-Aug-15 15:27N 38°59' E 002°46'2018.4
2014-Aug-15 14:23N 39°06' E 002°22'1718.1
2014-Aug-15 13:27N 39°11' E 002°01'134 4.8
2014-Aug-14 09:33N 37°50' W 000°15'1919.5
2014-Aug-14 08:33N 37°35' W 000°30'2219.8
2014-Aug-14 07:26N 37°19' W 000°50'22916.1
2014-Aug-13 17:14N 35°59' W 005°17'  
Track history (hours):
 
Tides and Currents Weather Stations Pressure Air Temp Water Temp Dewpoint Dewpoint Depression Visibility Wind Speed Wind Dir Waves Ship Positions

MSC Carolina

Last reported at 2014-Aug-21 05:33 UTC. Time now 2014-Aug-21 06:22 UTC.
Position N 34°39' E 033°01'.

Length 275 m; draft 12.1 m.

Type: Ship (hazmat cat B). MMSI: 371475000.

Date/timePositionNaut miles runAvg speedWind from/ knotsBaromVisibWave heightAir tempDewpointWater temp
2014-Aug-21 05:33N 34°39' E 033°01'0 0.0
2014-Aug-21 04:33N 34°39' E 033°01'2 2.1
2014-Aug-21 03:33N 34°39' E 033°03'3 2.8
2014-Aug-21 02:33N 34°38' E 033°06'9 8.8
2014-Aug-21 01:33N 34°31' E 033°14'0 0.2
2014-Aug-21 00:25N 34°31' E 033°14'0 0.2
2014-Aug-20 23:27N 34°31' E 033°14'0 0.2
2014-Aug-20 22:33N 34°31' E 033°14'0 0.3
2014-Aug-20 21:33N 34°31' E 033°13'0 0.3
2014-Aug-20 20:30N 34°31' E 033°13'0 0.3
2014-Aug-20 19:33N 34°30' E 033°13'0 0.3
2014-Aug-20 18:33N 34°30' E 033°13'0 0.2
2014-Aug-20 17:33N 34°30' E 033°12'1 1.4
2014-Aug-20 16:34N 34°30' E 033°11'10 9.9
2014-Aug-20 15:34N 34°25' E 033°01'1110.9
2014-Aug-20 14:33N 34°24' E 032°47'1110.9
2014-Aug-20 13:33N 34°22' E 032°34'  
2014-Aug-17 11:24N 36°27' E 014°52'1012.0
2014-Aug-17 10:34N 36°29' E 014°40'1212.3
2014-Aug-17 09:34N 36°32' E 014°25'1212.1
2014-Aug-17 08:34N 36°35' E 014°11'1212.2
2014-Aug-17 07:34N 36°37' E 013°56'1212.1
2014-Aug-17 06:34N 36°40' E 013°41'1212.1
2014-Aug-17 05:34N 36°43' E 013°26'1312.2
2014-Aug-17 04:27N 36°46' E 013°10'1111.9
2014-Aug-17 03:34N 36°48' E 012°57'1211.8
2014-Aug-17 02:33N 36°51' E 012°43'1211.9
2014-Aug-17 01:34N 36°53' E 012°28'1212.1
2014-Aug-17 00:32N 36°56' E 012°13'2812.1
2014-Aug-16 22:12N 37°07' E 011°40'811.8
2014-Aug-16 21:32N 37°11' E 011°32'1311.8
2014-Aug-16 20:28N 37°18' E 011°19'1211.9
2014-Aug-16 19:25N 37°24' E 011°05'1011.8
2014-Aug-16 18:34N 37°29' E 010°54'1212.0
2014-Aug-16 17:33N 37°36' E 010°41'1212.2
2014-Aug-16 16:33N 37°42' E 010°28'1212.3
2014-Aug-16 15:33N 37°47' E 010°14'1211.8
2014-Aug-16 14:34N 37°51' E 010°00'1212.1
2014-Aug-16 13:33N 37°53' E 009°45'1313.4
2014-Aug-16 12:33N 37°55' E 009°28'1313.3
2014-Aug-16 11:34N 37°58' E 009°12'1313.4
2014-Aug-16 10:34N 37°59' E 008°55'1313.4
2014-Aug-16 09:34N 38°01' E 008°38'1413.5
2014-Aug-16 08:33N 38°03' E 008°21'26815.7
2014-Aug-15 15:27N 38°59' E 002°46'2018.4
2014-Aug-15 14:23N 39°06' E 002°22'1718.1
2014-Aug-15 13:27N 39°11' E 002°01'134 4.8
2014-Aug-14 09:33N 37°50' W 000°15'1919.5
2014-Aug-14 08:33N 37°35' W 000°30'2219.8
2014-Aug-14 07:26N 37°19' W 000°50'22916.1
2014-Aug-13 17:14N 35°59' W 005°17'  

Dump ship's entire track history